Time;durP1;ratioP1;P1;durP2;ratioP2;P2;SDS_P1;SDS_P2;PMS_P1;PMS_P2;Temp;Humidity;BMP_temperature;BMP_pressure;BME280_temperature;BME280_humidity;BME280_pressure;Samples;Min_cycle;Max_cycle;Signal;HPM_P1;HPM_P2
2023/10/17 00:01:14;;;;;;;;;;;;;;;11.85;100.00;99919.84;5024760;28;20377;-76
2023/10/17 00:03:40;;;;;;;;;;;;;;;11.69;100.00;99927.50;5021302;28;19921;-77
2023/10/17 00:06:06;;;;;;;;;;;;;;;11.56;100.00;99926.94;5001954;28;19928;-78
2023/10/17 00:08:32;;;;;;;;;;;;;;;11.24;100.00;99923.75;5026081;28;20284;-78
2023/10/17 00:11:06;;;;;;;;;;;;;;;11.16;100.00;99913.03;5023026;28;19933;-77
2023/10/17 00:13:38;;;;;;;;;;;;;;;11.17;100.00;99920.00;5021492;28;20504;-77
2023/10/17 00:16:08;;;;;;;;;;;;;;;11.20;100.00;99917.06;5023825;28;19923;-77
2023/10/17 00:18:33;;;;;;;;;;;;;;;11.15;100.00;99917.47;5023993;28;19928;-77
2023/10/17 00:21:09;;;;;;;;;;;;;;;11.12;100.00;99916.94;5021665;28;19925;-77
2023/10/17 00:23:34;;;;;;;;;;;;;;;11.07;100.00;99912.88;5021418;28;19921;-77
2023/10/17 00:26:03;;;;;;;;;;;;;;;11.07;100.00;99912.88;5020460;28;20009;-77
2023/10/17 00:28:28;;;;;;;;;;;;;;;11.12;100.00;99916.94;5024211;28;20369;-75
2023/10/17 00:30:54;;;;;;;;;;;;;;;11.06;100.00;99919.16;5022915;28;20331;-77
2023/10/17 00:33:20;;;;;;;;;;;;;;;11.09;100.00;99915.38;5005629;28;19960;-79
2023/10/17 00:35:46;;;;;;;;;;;;;;;10.89;100.00;99927.75;5023833;28;19922;-78
2023/10/17 00:38:15;;;;;;;;;;;;;;;10.99;100.00;99923.31;5023610;28;20039;-76
2023/10/17 00:40:51;;;;;;;;;;;;;;;10.99;100.00;99911.91;5017096;28;19921;-78
2023/10/17 00:43:17;;;;;;;;;;;;;;;11.01;100.00;99910.81;5021781;28;19921;-78
2023/10/17 00:45:46;;;;;;;;;;;;;;;11.00;100.00;99913.59;5001704;28;19921;-78
2023/10/17 00:48:29;;;;;;;;;;;;;;;10.97;100.00;99906.75;5024377;28;19963;-77
2023/10/17 00:51:08;;;;;;;;;;;;;;;10.93;100.00;99909.81;5025064;28;19922;-78
2023/10/17 00:53:33;;;;;;;;;;;;;;;10.89;100.00;99906.63;5002151;28;19928;-77
2023/10/17 00:55:59;;;;;;;;;;;;;;;10.95;100.00;99900.78;5024338;28;20342;-77
2023/10/17 00:58:25;;;;;;;;;;;;;;;10.77;100.00;99902.41;5019000;28;20169;-77
2023/10/17 01:00:58;;;;;;;;;;;;;;;10.75;100.00;99904.34;5000621;28;20432;-78
2023/10/17 01:03:25;;;;;;;;;;;;;;;10.82;100.00;99894.09;5019786;28;20253;-79
2023/10/17 01:08:50;;;;;;;;;;;;;;;10.68;100.00;99898.78;5003529;28;19921;-78
2023/10/17 01:11:22;;;;;;;;;;;;;;;10.63;100.00;99900.16;5029585;28;19928;-77
2023/10/17 01:13:54;;;;;;;;;;;;;;;10.66;100.00;99907.81;5007438;28;19925;-74
2023/10/17 01:16:20;;;;;;;;;;;;;;;10.62;100.00;99909.88;5028141;28;20288;-76
2023/10/17 01:18:45;;;;;;;;;;;;;;;10.56;100.00;99914.84;5025033;28;19921;-76
2023/10/17 01:21:14;;;;;;;;;;;;;;;10.53;100.00;99904.56;5024734;28;19929;-76
2023/10/17 01:23:40;;;;;;;;;;;;;;;10.55;100.00;99902.63;5005993;28;20008;-75
2023/10/17 01:26:08;;;;;;;;;;;;;;;10.55;100.00;99899.97;5009565;28;20361;-76
2023/10/17 01:28:34;;;;;;;;;;;;;;;10.62;100.00;99903.75;5028236;28;20400;-79
2023/10/17 01:31:01;;;;;;;;;;;;;;;10.65;100.00;99908.78;5025395;28;19925;-75
2023/10/17 01:33:29;;;;;;;;;;;;;;;10.65;100.00;99908.78;5009548;28;20405;-75
2023/10/17 01:35:58;;;;;;;;;;;;;;;10.70;100.00;99906.56;5005386;28;20020;-77
2023/10/17 01:38:28;;;;;;;;;;;;;;;10.71;100.00;99907.41;5008716;28;19967;-78
2023/10/17 01:40:57;;;;;;;;;;;;;;;10.70;100.00;99896.00;5020695;28;19922;-77
2023/10/17 01:43:23;;;;;;;;;;;;;;;10.75;100.00;99893.78;5026173;28;19996;-78
2023/10/17 01:45:48;;;;;;;;;;;;;;;10.69;100.00;99899.63;5023884;28;20023;-76
2023/10/17 01:48:14;;;;;;;;;;;;;;;10.60;100.00;99889.88;5007518;28;19921;-78
2023/10/17 01:50:39;;;;;;;;;;;;;;;10.59;100.00;99899.59;5023158;28;19928;-78
2023/10/17 01:53:12;;;;;;;;;;;;;;;10.52;100.00;99902.91;5027755;28;19921;-77
2023/10/17 01:55:39;;;;;;;;;;;;;;;10.56;100.00;99896.38;5024829;28;19921;-76
2023/10/17 01:58:07;;;;;;;;;;;;;;;10.57;100.00;99898.06;5009677;28;19928;-77
2023/10/17 02:03:03;;;;;;;;;;;;;;;10.61;100.00;99887.09;5022222;28;21268;-77
2023/10/17 02:05:29;;;;;;;;;;;;;;;10.64;100.00;99893.91;5023782;28;19925;-76
2023/10/17 02:07:55;;;;;;;;;;;;;;;10.63;100.00;99894.88;5023635;28;20332;-77
2023/10/17 02:10:28;;;;;;;;;;;;;;;10.48;100.00;99896.22;5005602;28;19921;-77
2023/10/17 02:12:54;;;;;;;;;;;;;;;10.38;100.00;99890.06;5027183;28;20328;-76
2023/10/17 02:15:19;;;;;;;;;;;;;;;10.22;100.00;99891.41;5023715;28;20405;-76
2023/10/17 02:17:46;;;;;;;;;;;;;;;10.06;100.00;99883.13;5021458;28;20364;-77
2023/10/17 02:20:29;;;;;;;;;;;;;;;10.08;100.00;99881.16;5024902;28;19921;-77
2023/10/17 02:22:55;;;;;;;;;;;;;;;10.09;100.00;99884.63;5004037;28;19925;-77
2023/10/17 02:25:30;;;;;;;;;;;;;;;10.06;100.00;99883.13;5024756;28;20008;-78
2023/10/17 02:27:57;;;;;;;;;;;;;;;10.10;100.00;99887.16;5023189;28;20351;-77
2023/10/17 02:30:22;;;;;;;;;;;;;;;9.87;100.00;99885.63;5006716;28;20373;-74
2023/10/17 02:32:53;;;;;;;;;;;;;;;9.61;100.00;99889.63;5021973;28;20385;-76
2023/10/17 02:35:20;;;;;;;;;;;;;;;9.38;100.00;99894.19;5022645;28;19976;-76
2023/10/17 02:37:47;;;;;;;;;;;;;;;9.37;100.00;99895.97;5023689;28;19928;-77
2023/10/17 02:40:23;;;;;;;;;;;;;;;9.10;100.00;99895.63;5023754;28;20416;-77
2023/10/17 02:42:48;;;;;;;;;;;;;;;8.95;100.00;99891.59;4999005;28;19926;-77
2023/10/17 02:45:24;;;;;;;;;;;;;;;8.91;100.00;99891.00;5009084;28;19927;-76
2023/10/17 02:47:51;;;;;;;;;;;;;;;8.82;100.00;99890.91;5006571;28;19926;-75
2023/10/17 02:52:56;;;;;;;;;;;;;;;8.85;100.00;99888.03;5008015;28;19921;-76
2023/10/17 02:55:23;;;;;;;;;;;;;;;8.87;100.00;99888.75;5009324;28;19935;-77
2023/10/17 02:57:50;;;;;;;;;;;;;;;8.92;100.00;99883.94;5007702;28;20020;-77
2023/10/17 03:00:33;;;;;;;;;;;;;;;8.80;100.00;99884.94;5025560;28;19921;-77
2023/10/17 03:02:59;;;;;;;;;;;;;;;8.87;100.00;99883.47;5002039;28;19989;-77
2023/10/17 03:05:25;;;;;;;;;;;;;;;8.96;100.00;99888.00;5026775;28;19991;-76
2023/10/17 03:07:50;;;;;;;;;;;;;;;9.00;100.00;99885.00;5022647;28;20389;-75
2023/10/17 03:10:37;;;;;;;;;;;;;;;9.06;100.00;99886.31;5005933;28;19921;-77
2023/10/17 03:13:14;;;;;;;;;;;;;;;9.09;100.00;99893.09;5020033;28;19925;-73
2023/10/17 03:15:45;;;;;;;;;;;;;;;9.09;100.00;99888.66;5024101;28;19943;-76
2023/10/17 03:18:18;;;;;;;;;;;;;;;9.08;100.00;99881.72;5004696;28;20309;-76
2023/10/17 03:20:50;;;;;;;;;;;;;;;8.88;100.00;99879.91;5003887;28;19945;-76
2023/10/17 03:23:28;;;;;;;;;;;;;;;8.70;100.00;99878.75;5006045;28;20486;-78
2023/10/17 03:26:03;;;;;;;;;;;;;;;8.66;100.00;99880.75;5022752;28;19921;-77
2023/10/17 03:28:29;;;;;;;;;;;;;;;8.76;100.00;99880.88;5002578;28;19997;-75
2023/10/17 03:30:54;;;;;;;;;;;;;;;8.81;100.00;99889.25;5004827;28;19921;-77
2023/10/17 03:33:26;;;;;;;;;;;;;;;8.80;100.00;99892.81;5019640;28;19925;-77
2023/10/17 03:38:27;;;;;;;;;;;;;;;8.93;100.00;99888.25;5002608;28;20281;-75
2023/10/17 03:41:02;;;;;;;;;;;;;;;8.91;100.00;99892.78;5018903;28;19921;-75
2023/10/17 03:43:29;;;;;;;;;;;;;;;8.96;100.00;99893.25;5021966;28;19931;-76
2023/10/17 03:46:05;;;;;;;;;;;;;;;8.83;100.00;99896.06;5022767;28;20444;-77
2023/10/17 03:48:36;;;;;;;;;;;;;;;8.70;100.00;99886.63;5024495;28;19929;-77
2023/10/17 03:53:42;;;;;;;;;;;;;;;8.69;100.00;99895.47;5024938;28;20369;-78
2023/10/17 03:56:11;;;;;;;;;;;;;;;8.75;100.00;99890.56;5022495;28;20444;-77
2023/10/17 03:58:57;;;;;;;;;;;;;;;8.82;100.00;99890.91;5021197;28;19925;-77
2023/10/17 04:01:28;;;;;;;;;;;;;;;8.84;100.00;99894.25;5023156;28;19921;-75
2023/10/17 04:03:54;;;;;;;;;;;;;;;8.74;100.00;99894.16;5023834;28;20389;-76
2023/10/17 04:06:38;;;;;;;;;;;;;;;8.79;100.00;99896.41;5025512;28;19959;-76
2023/10/17 04:11:53;;;;;;;;;;;;;;;8.80;100.00;99900.72;5022013;28;20185;-76
2023/10/17 04:14:20;;;;;;;;;;;;;;;8.80;100.00;99903.34;5019539;28;20211;-75
2023/10/17 04:16:48;;;;;;;;;;;;;;;8.79;100.00;99901.69;5021331;28;20293;-76
2023/10/17 04:19:17;;;;;;;;;;;;;;;8.83;100.00;99903.13;5004251;28;19979;-77
2023/10/17 04:21:51;;;;;;;;;;;;;;;8.80;100.00;99898.09;5019905;28;19928;-76
2023/10/17 04:24:26;;;;;;;;;;;;;;;8.80;100.00;99898.09;5026482;28;20004;-77
2023/10/17 04:26:56;;;;;;;;;;;;;;;8.82;100.00;99901.44;5025546;28;20012;-75
2023/10/17 04:29:26;;;;;;;;;;;;;;;8.78;100.00;99902.63;5016111;28;19976;-78
2023/10/17 04:31:56;;;;;;;;;;;;;;;8.85;100.00;99904.66;5024695;28;19921;-77
2023/10/17 04:34:22;;;;;;;;;;;;;;;8.84;100.00;99900.34;5021573;28;19921;-77
2023/10/17 04:36:56;;;;;;;;;;;;;;;8.92;100.00;99902.38;5022936;28;19921;-77
2023/10/17 04:39:35;;;;;;;;;;;;;;;8.90;100.00;99904.28;5022799;28;19975;-77
2023/10/17 04:44:32;;;;;;;;;;;;;;;8.90;100.00;99891.13;5023778;28;19992;-77
2023/10/17 04:47:43;;;;;;;;;;;;;;;8.88;100.00;99900.94;5010946;28;20436;-78
2023/10/17 04:49:44;;;;;;;;;;;;;;;8.76;100.00;99896.69;5011123;28;19921;-79
2023/10/17 04:52:10;;;;;;;;;;;;;;;8.72;100.00;99896.06;5024098;28;20377;-77
2023/10/17 04:57:06;;;;;;;;;;;;;;;8.63;100.00;99900.28;5023160;28;20012;-80
2023/10/17 04:59:43;;;;;;;;;;;;;;;8.63;100.00;99897.66;5007567;28;19968;-79
2023/10/17 06:18:26;;;;;;;;;;;;;;;8.30;100.00;99942.38;5019865;28;20388;-78
2023/10/17 06:21:16;;;;;;;;;;;;;;;8.28;100.00;99938.16;5003120;28;19952;-80
2023/10/17 06:34:19;;;;;;;;;;;;;;;8.52;100.00;99942.38;5003115;28;19983;-79
2023/10/17 06:36:49;;;;;;;;;;;;;;;8.57;100.00;99944.66;5017941;28;19925;-81
2023/10/17 06:39:17;;;;;;;;;;;;;;;8.58;100.00;99948.94;5024122;28;19925;-80
2023/10/17 06:41:44;;;;;;;;;;;;;;;8.62;100.00;99948.59;5019533;28;20397;-79
2023/10/17 06:44:11;;;;;;;;;;;;;;;8.54;100.00;99948.34;5027958;28;19921;-80
2023/10/17 06:47:07;;;;;;;;;;;;;;;8.54;100.00;99955.41;4998619;28;19945;-80
2023/10/17 06:54:41;;;;;;;;;;;;;;;8.82;100.00;99959.34;5019146;28;20432;-80
2023/10/17 06:57:23;;;;;;;;;;;;;;;8.93;100.00;99961.94;5019817;28;19921;-80
2023/10/17 06:59:52;;;;;;;;;;;;;;;9.04;100.00;99964.56;5023530;28;20439;-80
2023/10/17 07:02:34;;;;;;;;;;;;;;;9.11;100.00;99957.84;5002189;28;20290;-79
2023/10/17 07:05:00;;;;;;;;;;;;;;;9.11;100.00;99965.75;5020532;28;20301;-80
2023/10/17 07:07:39;;;;;;;;;;;;;;;9.12;100.00;99962.16;5022624;28;19929;-81
2023/10/17 07:10:16;;;;;;;;;;;;;;;9.24;100.00;99955.91;5035943;23;20464;-75
2023/10/17 07:12:42;;;;;;;;;;;;;;;9.28;100.00;99961.75;4325894;28;10000668;-74
2023/10/17 07:15:41;;;;;;;;;;;;;;;9.33;100.00;99959.56;5029250;28;20411;-74
2023/10/17 07:23:32;;;;;;;;;;;;;;;9.42;100.00;99975.44;5028521;28;19925;-74
2023/10/17 07:25:57;;;;;;;;;;;;;;;9.52;100.00;99975.53;5025076;28;20372;-75
2023/10/17 07:28:23;;;;;;;;;;;;;;;9.60;100.00;99967.81;5025867;28;19948;-73
2023/10/17 07:30:57;;;;;;;;;;;;;;;9.67;100.00;99973.44;5023965;28;20007;-72
2023/10/17 07:33:26;;;;;;;;;;;;;;;9.72;100.00;99966.00;5024547;28;20341;-73
2023/10/17 07:35:58;;;;;;;;;;;;;;;9.79;100.00;99972.41;5003070;28;19928;-73
2023/10/17 07:38:29;;;;;;;;;;;;;;;9.89;100.00;99965.44;5027372;28;19921;-71
2023/10/17 07:41:36;;;;;;;;;;;;;;;9.99;100.00;99968.97;5021437;28;19921;-74
2023/10/17 07:43:46;;;;;;;;;;;;;;;10.00;100.00;99975.91;5019667;28;19928;-74
2023/10/17 07:46:26;;;;;;;;;;;;;;;10.01;100.00;99974.97;5023517;28;19921;-74
2023/10/17 07:48:52;;;;;;;;;;;;;;;10.02;100.00;99976.59;5022016;28;19960;-75
2023/10/17 07:51:17;;;;;;;;;;;;;;;10.10;100.00;99975.97;5026257;28;19971;-74
2023/10/17 07:53:46;;;;;;;;;;;;;;;10.15;100.00;99979.03;5023032;28;19927;-74
2023/10/17 07:56:21;;;;;;;;;;;;;;;10.17;100.00;99985.91;5026836;28;19922;-75
2023/10/17 07:59:08;;;;;;;;;;;;;;;10.32;100.00;99983.75;5025198;28;20352;-74
2023/10/17 08:01:43;;;;;;;;;;;;;;;10.43;100.00;99982.81;5024365;28;20374;-74
2023/10/17 08:04:18;;;;;;;;;;;;;;;10.54;100.00;99980.13;5025138;28;19921;-74
2023/10/17 08:06:50;;;;;;;;;;;;;;;10.63;100.00;99981.97;5022340;28;19929;-74
2023/10/17 08:11:54;;;;;;;;;;;;;;;10.79;100.00;99984.09;5018212;28;20434;-75
2023/10/17 08:14:27;;;;;;;;;;;;;;;10.82;100.00;99989.13;5020820;28;20042;-73
2023/10/17 08:16:55;;;;;;;;;;;;;;;10.92;100.00;99989.97;5006515;28;20401;-76
2023/10/17 08:19:29;;;;;;;;;;;;;;;11.01;100.00;99992.69;5028843;28;19921;-74
2023/10/17 08:28:13;;;;;;;;;;;;;;;11.19;100.00;99992.03;5025381;28;20063;-74
2023/10/17 08:30:05;;;;;;;;;;;;;;;11.25;100.00;99992.28;5007753;28;20299;-74
2023/10/17 08:32:39;;;;;;;;;;;;;;;11.36;100.00;99983.41;5026387;28;20355;-75
2023/10/17 08:35:19;;;;;;;;;;;;;;;11.46;100.00;99984.25;5029497;28;20008;-75
2023/10/17 08:37:45;;;;;;;;;;;;;;;11.57;100.00;99986.78;5026595;28;19921;-75
2023/10/17 08:40:29;;;;;;;;;;;;;;;11.65;100.00;99984.28;5029586;28;19921;-75
2023/10/17 08:43:13;;;;;;;;;;;;;;;11.75;100.00;99979.84;5027871;28;20300;-76
2023/10/17 08:45:39;;;;;;;;;;;;;;;11.82;100.00;99982.78;5026197;28;19921;-76
2023/10/17 08:48:09;;;;;;;;;;;;;;;11.80;100.00;99988.19;5027666;28;19925;-77
2023/10/17 08:50:38;;;;;;;;;;;;;;;11.86;100.00;99986.78;5023228;28;19925;-76
2023/10/17 08:53:13;;;;;;;;;;;;;;;11.95;100.00;99993.06;5026341;28;20587;-76
2023/10/17 08:55:40;;;;;;;;;;;;;;;12.01;100.00;99984.56;5028392;28;19925;-76
2023/10/17 08:58:08;;;;;;;;;;;;;;;12.09;100.00;99987.31;5029507;28;19921;-76
2023/10/17 09:03:40;;;;;;;;;;;;;;;12.23;100.00;99978.94;5022550;28;19928;-76
2023/10/17 09:06:07;;;;;;;;;;;;;;;12.29;100.00;99978.38;5025834;28;20002;-76
2023/10/17 09:11:29;;;;;;;;;;;;;;;12.36;100.00;99968.06;5028032;28;19921;-75
2023/10/17 09:16:41;;;;;;;;;;;;;;;12.48;100.00;99967.75;5024777;28;19925;-74
2023/10/17 09:19:10;;;;;;;;;;;;;;;12.57;100.00;99966.84;5027952;28;20325;-74
2023/10/17 09:21:44;;;;;;;;;;;;;;;12.64;100.00;99960.00;5024571;28;19921;-75
2023/10/17 09:24:29;;;;;;;;;;;;;;;12.71;100.00;99963.75;5028073;28;20414;-76
2023/10/17 09:26:56;;;;;;;;;;;;;;;12.79;100.00;99965.63;5025965;28;19921;-75
2023/10/17 09:29:22;;;;;;;;;;;;;;;12.88;100.00;99961.28;5024478;28;19964;-75
2023/10/17 09:31:47;;;;;;;;;;;;;;;12.92;100.00;99957.34;5013385;28;19928;-75
2023/10/17 09:34:13;;;;;;;;;;;;;;;12.97;100.00;99952.44;5023101;28;19933;-75
2023/10/17 09:36:42;;;;;;;;;;;;;;;13.01;100.00;99959.13;5010422;28;19921;-74
2023/10/17 09:39:14;;;;;;;;;;;;;;;13.07;100.00;99950.59;5023897;28;19928;-75
2023/10/17 09:41:40;;;;;;;;;;;;;;;13.14;100.00;99962.25;5025870;28;19932;-75
2023/10/17 09:44:10;;;;;;;;;;;;;;;13.19;100.00;99948.59;5023735;28;19921;-75
2023/10/17 09:46:35;;;;;;;;;;;;;;;13.24;100.00;99948.97;5009272;28;20377;-75
2023/10/17 09:49:02;;;;;;;;;;;;;;;13.27;100.00;99946.84;5023172;28;19972;-76
2023/10/17 09:51:33;;;;;;;;;;;;;;;13.30;100.00;99949.19;5023077;28;20254;-75
2023/10/17 09:53:58;;;;;;;;;;;;;;;13.36;100.00;99947.75;5023291;28;20041;-75
2023/10/17 09:56:30;;;;;;;;;;;;;;;13.38;100.00;99951.91;5025306;28;20389;-75
2023/10/17 09:59:03;;;;;;;;;;;;;;;13.44;100.00;99950.47;5025086;28;19933;-76
2023/10/17 10:01:31;;;;;;;;;;;;;;;13.49;100.00;99949.03;5026059;28;19967;-76
2023/10/17 10:03:57;;;;;;;;;;;;;;;13.56;100.00;99940.47;5008500;28;20020;-75
2023/10/17 10:06:27;;;;;;;;;;;;;;;13.62;100.00;99942.50;5025671;28;20020;-76
2023/10/17 10:08:56;;;;;;;;;;;;;;;13.68;100.00;99944.56;5023213;28;19979;-76
2023/10/17 10:11:41;;;;;;;;;;;;;;;13.74;100.00;99936.00;5027010;28;19921;-75
2023/10/17 10:14:11;;;;;;;;;;;;;;;13.80;100.00;99932.72;5027155;28;19928;-73
2023/10/17 10:16:50;;;;;;;;;;;;;;;13.85;100.00;99938.41;5024864;28;19926;-76
2023/10/17 10:19:16;;;;;;;;;;;;;;;13.90;100.00;99928.97;5027949;28;19929;-74
2023/10/17 10:21:54;;;;;;;;;;;;;;;13.92;100.00;99934.13;5024978;28;19921;-75
2023/10/17 10:24:33;;;;;;;;;;;;;;;13.99;100.00;99927.22;4721481;28;9999806;-75
2023/10/17 10:27:14;;;;;;;;;;;;;;;14.03;100.00;99923.28;5003864;28;19925;-73
2023/10/17 10:29:40;;;;;;;;;;;;;;;14.10;100.00;99926.97;5020990;28;19925;-74
2023/10/17 10:32:06;;;;;;;;;;;;;;;14.18;100.00;99929.69;5018089;28;19992;-73
2023/10/17 10:34:39;;;;;;;;;;;;;;;14.23;100.00;99927.38;5024743;28;20341;-74
2023/10/17 10:37:07;;;;;;;;;;;;;;;14.29;100.00;99920.63;5018834;28;19929;-74
2023/10/17 10:39:32;;;;;;;;;;;;;;;14.36;100.00;99911.03;5020719;28;20444;-74
2023/10/17 10:41:59;;;;;;;;;;;;;;;14.41;100.00;99907.94;5021110;28;20285;-73
2023/10/17 10:44:25;;;;;;;;;;;;;;;14.45;100.00;99901.31;5018249;28;19997;-73
2023/10/17 10:46:52;;;;;;;;;;;;;;;14.53;100.00;99901.34;5024858;28;19983;-74
2023/10/17 10:49:24;;;;;;;;;;;;;;;14.59;100.00;99895.41;5002884;28;19936;-74
2023/10/17 10:51:50;;;;;;;;;;;;;;;14.69;100.00;99896.09;5019309;28;19928;-74
2023/10/17 10:54:17;;;;;;;;;;;;;;;14.76;100.00;99894.47;5023656;28;19929;-73
2023/10/17 10:56:52;;;;;;;;;;;;;;;14.85;100.00;99882.03;5018898;28;19925;-73
2023/10/17 10:59:21;;;;;;;;;;;;;;;14.92;100.00;99883.88;5017570;28;19925;-75
2023/10/17 11:01:49;;;;;;;;;;;;;;;14.98;100.00;99879.75;5017144;28;19921;-74
2023/10/17 11:04:20;;;;;;;;;;;;;;;15.07;100.00;99873.47;4809885;28;9999730;-74
2023/10/17 11:06:47;;;;;;;;;;;;;;;15.20;100.00;99867.66;5017271;28;19928;-74
2023/10/17 11:09:21;;;;;;;;;;;;;;;15.31;100.00;99872.66;5021753;28;19921;-74
2023/10/17 11:11:49;;;;;;;;;;;;;;;15.42;100.00;99872.31;5022913;28;20377;-74
2023/10/17 11:14:18;;;;;;;;;;;;;;;15.56;100.00;99869.00;5003739;28;20381;-74
2023/10/17 11:16:46;;;;;;;;;;;;;;;15.69;100.00;99858.72;5021932;28;19961;-74
2023/10/17 11:19:21;;;;;;;;;;;;;;;15.83;100.00;99850.06;5025521;28;20801;-74
2023/10/17 11:22:02;;;;;;;;;;;;;;;15.94;100.00;99856.84;5022655;28;19929;-74
2023/10/17 11:24:28;;;;;;;;;;;;;;;16.03;100.00;99855.81;5022040;28;19936;-74
2023/10/17 11:26:54;;;;;;;;;;;;;;;16.16;100.00;99852.63;5026137;28;19922;-74
2023/10/17 11:29:25;;;;;;;;;;;;;;;16.24;100.00;99848.09;5020967;28;19928;-74
2023/10/17 11:31:54;;;;;;;;;;;;;;;16.35;100.00;99847.72;5022644;28;20035;-74
2023/10/17 11:34:29;;;;;;;;;;;;;;;16.46;100.00;99837.69;5023639;28;19925;-75
2023/10/17 11:37:02;;;;;;;;;;;;;;;16.57;100.00;99843.47;5020046;28;20580;-75
2023/10/17 11:39:37;;;;;;;;;;;;;;;16.63;100.00;99834.81;5004900;28;19932;-75
2023/10/17 11:42:03;;;;;;;;;;;;;;;16.70;98.80;99825.09;5028849;28;20385;-75
2023/10/17 11:44:31;;;;;;;;;;;;;;;16.81;100.00;99818.53;5018928;28;19922;-75
2023/10/17 11:47:03;;;;;;;;;;;;;;;16.85;98.07;99819.03;5023557;28;20397;-76
2023/10/17 11:49:33;;;;;;;;;;;;;;;16.95;98.75;99819.63;5023160;28;19925;-75
2023/10/17 11:52:12;;;;;;;;;;;;;;;17.07;97.64;99807.56;5022399;28;19936;-75
2023/10/17 11:54:53;;;;;;;;;;;;;;;17.16;97.29;99803.78;5020873;28;20227;-75
2023/10/17 11:57:22;;;;;;;;;;;;;;;17.27;95.56;99803.38;5022745;28;20396;-77
2023/10/17 11:59:57;;;;;;;;;;;;;;;17.36;95.24;99802.31;5022327;28;19933;-76
2023/10/17 12:02:23;;;;;;;;;;;;;;;17.42;95.35;99801.59;5021677;28;19932;-76
2023/10/17 12:04:49;;;;;;;;;;;;;;;17.44;94.96;99799.53;5023488;28;19968;-76
2023/10/17 12:07:15;;;;;;;;;;;;;;;17.48;95.24;99794.69;4994102;28;20003;-74
2023/10/17 12:09:40;;;;;;;;;;;;;;;17.42;93.47;99796.25;5023490;28;19971;-74
2023/10/17 12:12:06;;;;;;;;;;;;;;;17.43;94.38;99784.56;5026476;28;19921;-76
2023/10/17 12:14:32;;;;;;;;;;;;;;;17.41;92.92;99791.91;5022936;28;19967;-74
2023/10/17 12:17:00;;;;;;;;;;;;;;;17.41;93.29;99789.25;5021872;28;20037;-75
2023/10/17 12:19:26;;;;;;;;;;;;;;;17.45;94.72;99785.19;5020467;28;19975;-75
2023/10/17 12:21:53;;;;;;;;;;;;;;;17.48;94.29;99790.19;5025263;28;20429;-75
2023/10/17 12:24:28;;;;;;;;;;;;;;;17.52;95.90;99779.97;5003575;28;20382;-75
2023/10/17 12:26:55;;;;;;;;;;;;;;;17.54;94.90;99786.81;5025192;28;19928;-76
2023/10/17 12:29:21;;;;;;;;;;;;;;;17.56;95.02;99787.44;5021674;28;20451;-75
2023/10/17 12:31:46;;;;;;;;;;;;;;;17.57;94.34;99778.41;5021020;28;19956;-73
2023/10/17 12:34:15;;;;;;;;;;;;;;;17.50;92.94;99781.97;5021687;28;19959;-75
2023/10/17 12:36:41;;;;;;;;;;;;;;;17.44;93.37;99777.38;5022274;28;20401;-74
2023/10/17 12:39:07;;;;;;;;;;;;;;;17.43;93.87;99776.56;5021745;28;19949;-74
2023/10/17 12:41:33;;;;;;;;;;;;;;;17.49;94.52;99764.34;5026140;28;20404;-73
2023/10/17 12:43:59;;;;;;;;;;;;;;;17.52;93.07;99764.78;5023568;28;20338;-74
2023/10/17 12:46:25;;;;;;;;;;;;;;;17.62;93.79;99766.38;5021563;28;20012;-75
2023/10/17 12:48:50;;;;;;;;;;;;;;;17.61;91.66;99762.09;5025723;28;19971;-75
2023/10/17 12:51:16;;;;;;;;;;;;;;;17.64;92.76;99761.72;5020178;28;19933;-75
2023/10/17 12:53:41;;;;;;;;;;;;;;;17.65;90.72;99758.03;5021829;28;19929;-76
2023/10/17 12:56:10;;;;;;;;;;;;;;;17.64;90.72;99757.19;5024393;28;19921;-77
2023/10/17 12:58:36;;;;;;;;;;;;;;;17.66;90.99;99749.84;5022525;28;19962;-75
2023/10/17 13:01:05;;;;;;;;;;;;;;;17.64;89.07;99745.69;5023392;28;19971;-75
2023/10/17 13:03:33;;;;;;;;;;;;;;;17.54;89.11;99741.44;5027910;28;19921;-76
2023/10/17 13:06:02;;;;;;;;;;;;;;;17.67;89.71;99734.66;5026314;28;20335;-75
2023/10/17 13:08:27;;;;;;;;;;;;;;;17.81;88.52;99747.16;5024444;28;20285;-76
2023/10/17 13:10:54;;;;;;;;;;;;;;;18.00;89.83;99735.94;5023745;28;19921;-75
2023/10/17 13:13:19;;;;;;;;;;;;;;;18.18;88.99;99733.69;5006235;28;19924;-76
2023/10/17 13:15:45;;;;;;;;;;;;;;;18.28;86.87;99728.88;5027583;28;19932;-77
2023/10/17 13:18:12;;;;;;;;;;;;;;;18.39;86.21;99739.06;5022043;28;19928;-76
2023/10/17 13:20:38;;;;;;;;;;;;;;;18.57;86.39;99727.16;5020877;28;20019;-76
2023/10/17 13:23:04;;;;;;;;;;;;;;;18.65;86.41;99724.38;5027595;28;20017;-76
2023/10/17 13:25:36;;;;;;;;;;;;;;;18.65;87.18;99732.41;5026369;28;19925;-76
2023/10/17 13:28:03;;;;;;;;;;;;;;;18.66;86.21;99731.38;5024739;28;19999;-76
2023/10/17 13:30:28;;;;;;;;;;;;;;;18.62;85.97;99735.44;5020768;28;20089;-76
2023/10/17 13:32:54;;;;;;;;;;;;;;;18.57;86.35;99743.19;5026792;28;19965;-76
2023/10/17 13:35:22;;;;;;;;;;;;;;;18.49;85.38;99736.13;5025254;28;20431;-75
2023/10/17 13:37:51;;;;;;;;;;;;;;;18.50;86.38;99731.56;5014262;28;20282;-75
2023/10/17 13:40:16;;;;;;;;;;;;;;;18.44;86.20;99727.00;5024156;28;20269;-74
2023/10/17 13:42:42;;;;;;;;;;;;;;;18.31;87.28;99725.84;5027412;28;19921;-76
2023/10/17 13:45:10;;;;;;;;;;;;;;;18.20;87.45;99720.97;5024283;28;19925;-76
2023/10/17 13:47:37;;;;;;;;;;;;;;;18.06;87.31;99716.50;5024595;28;19928;-75
2023/10/17 13:50:04;;;;;;;;;;;;;;;17.98;87.62;99717.41;5025138;28;19921;-75
2023/10/17 13:52:30;;;;;;;;;;;;;;;17.91;88.29;99707.66;5026628;28;20919;-76
2023/10/17 13:54:55;;;;;;;;;;;;;;;17.84;89.22;99709.44;5026761;28;19921;-75
2023/10/17 13:57:21;;;;;;;;;;;;;;;17.63;89.72;99706.69;5023677;28;19921;-76
2023/10/17 13:59:49;;;;;;;;;;;;;;;17.58;91.49;99702.69;5026086;28;19921;-74
2023/10/17 14:02:17;;;;;;;;;;;;;;;17.62;91.61;99695.16;5023035;28;19925;-74
2023/10/17 14:04:43;;;;;;;;;;;;;;;17.60;91.31;99702.56;5027635;28;19940;-75
2023/10/17 14:07:11;;;;;;;;;;;;;;;17.55;91.34;99694.25;5025645;28;19984;-76
2023/10/17 14:09:39;;;;;;;;;;;;;;;17.47;91.67;99705.81;5027459;28;20316;-75
2023/10/17 14:12:08;;;;;;;;;;;;;;;17.43;91.85;99691.22;5005094;28;19935;-76
2023/10/17 14:14:35;;;;;;;;;;;;;;;17.34;91.91;99689.63;5026434;28;20356;-76
2023/10/17 14:17:01;;;;;;;;;;;;;;;17.27;92.41;99686.03;5022591;28;19968;-76
2023/10/17 14:19:37;;;;;;;;;;;;;;;17.26;92.87;99689.69;5020968;28;20281;-75
2023/10/17 14:27:20;;;;;;;;;;;;;;;17.26;93.17;99679.03;5023398;28;19921;-76
2023/10/17 14:29:46;;;;;;;;;;;;;;;17.24;92.48;99681.06;5021210;28;19944;-75
2023/10/17 14:32:11;;;;;;;;;;;;;;;17.28;93.18;99682.34;5009215;28;20015;-75
2023/10/17 14:34:37;;;;;;;;;;;;;;;17.34;93.16;99686.13;5023338;28;19921;-75
2023/10/17 14:37:06;;;;;;;;;;;;;;;17.35;93.26;99677.13;5025523;28;19928;-75
2023/10/17 14:39:31;;;;;;;;;;;;;;;17.38;92.59;99682.06;5004625;28;19929;-74
2023/10/17 14:41:57;;;;;;;;;;;;;;;17.41;92.63;99677.22;5026108;28;19951;-75
2023/10/17 14:44:24;;;;;;;;;;;;;;;17.44;92.03;99687.50;5022798;28;19974;-74
2023/10/17 14:46:52;;;;;;;;;;;;;;;17.48;92.34;99683.47;5024786;28;19990;-76
2023/10/17 14:49:18;;;;;;;;;;;;;;;17.46;92.91;99674.81;5025657;28;19930;-76
2023/10/17 14:51:44;;;;;;;;;;;;;;;17.47;92.14;99670.31;5011473;28;19928;-74
2023/10/17 14:54:09;;;;;;;;;;;;;;;17.43;92.24;99675.19;5023487;28;20329;-76
2023/10/17 14:56:36;;;;;;;;;;;;;;;17.44;92.97;99674.16;5029271;28;19982;-76
2023/10/17 14:59:01;;;;;;;;;;;;;;;17.41;93.19;99677.22;5025533;28;19925;-76
2023/10/17 15:01:26;;;;;;;;;;;;;;;17.39;93.58;99673.88;5028394;28;19921;-77
2023/10/17 15:03:52;;;;;;;;;;;;;;;17.33;93.28;99674.63;5025427;28;19975;-76
2023/10/17 15:06:18;;;;;;;;;;;;;;;17.32;94.17;99662.28;5027720;28;19932;-76
2023/10/17 15:08:44;;;;;;;;;;;;;;;17.24;93.06;99667.72;5007913;28;20337;-75
2023/10/17 15:11:12;;;;;;;;;;;;;;;17.18;93.74;99655.13;5010031;28;20063;-76
2023/10/17 15:13:38;;;;;;;;;;;;;;;17.13;94.54;99668.19;5012938;28;19922;-76
2023/10/17 15:16:12;;;;;;;;;;;;;;;17.12;95.56;99669.19;5013541;28;19932;-76